Arcadia, Kansas
Current Conditions -  °F | °C
As of 6:15 AM on Sunday 23 Nov 2014 (Local Time) from KPTS Reporting Station
Overcast Overcast  
Wind Chill: 58°   Ceiling: 1600
Heat Index: 58°   Visibility: 10mi
Dew Point: 58°   Wind: 10mph
Humidity: 99%   Direction: 190°S
Pressure: 29.54"   Gusts: 16mph
Location:  37.64°N, 94.62°W
Report Text: KPTS 231215Z AUTO 19009G14KT 10SM BKN016 OVC022 15/15 A2954 RMK AO2 T01470145
Loading
Personal Weather Stations






























Interactive Weather Map New forecast layout! Learn more

10-Day Weather Forecast

Advertisements
Track Severe Weather on mobile